createdAt,value
2022-08-28T00:00:17.203Z,59.4
2022-08-28T00:01:17.202Z,59.5
2022-08-28T00:02:17.225Z,59.8
2022-08-28T00:03:17.469Z,59.9
2022-08-28T00:04:17.252Z,59.8
2022-08-28T00:05:17.201Z,59.6
2022-08-28T00:06:17.218Z,59.6
2022-08-28T00:07:17.227Z,59.7
2022-08-28T00:08:17.224Z,60
2022-08-28T00:09:17.206Z,59.8
2022-08-28T00:10:17.198Z,59.9
2022-08-28T00:11:17.216Z,60.2
2022-08-28T00:12:17.220Z,60
2022-08-28T00:13:17.210Z,60
2022-08-28T00:14:17.216Z,60.1
2022-08-28T00:15:17.222Z,60.2
2022-08-28T00:16:17.281Z,60.4
2022-08-28T00:17:17.227Z,60.4
2022-08-28T00:18:17.212Z,60.2
2022-08-28T00:19:17.212Z,60.5
2022-08-28T00:20:17.228Z,60.3
2022-08-28T00:21:17.240Z,60.2
2022-08-28T00:22:17.222Z,60.3
2022-08-28T00:23:17.227Z,60.3
2022-08-28T00:24:17.278Z,60
2022-08-28T00:25:17.218Z,60.4
2022-08-28T00:26:17.212Z,60.3
2022-08-28T00:27:17.254Z,60.3
2022-08-28T00:28:23.653Z,60.2
2022-08-28T00:29:17.269Z,60.3
2022-08-28T00:30:17.233Z,60.5
2022-08-28T00:31:17.298Z,60.3
2022-08-28T00:32:17.232Z,60.6
2022-08-28T00:33:17.213Z,60.5
2022-08-28T00:34:17.273Z,60.7
2022-08-28T00:35:17.211Z,61
2022-08-28T00:36:17.223Z,61.1
2022-08-28T00:37:17.215Z,61
2022-08-28T00:38:17.232Z,61
2022-08-28T00:39:17.232Z,61
2022-08-28T00:40:17.314Z,61.1
2022-08-28T00:41:17.264Z,61
2022-08-28T00:42:17.212Z,60.9
2022-08-28T00:43:17.223Z,61
2022-08-28T00:44:17.240Z,61.1
2022-08-28T00:45:17.242Z,61.2
2022-08-28T00:46:17.257Z,61.2
2022-08-28T00:47:17.236Z,61.3
2022-08-28T00:48:17.239Z,61.4
2022-08-28T00:49:17.284Z,61.7
2022-08-28T00:50:17.227Z,61.5
2022-08-28T00:51:17.238Z,61.4
2022-08-28T00:52:17.228Z,61.7
2022-08-28T00:53:17.246Z,61.8
2022-08-28T00:54:17.238Z,62
2022-08-28T00:55:17.247Z,61.9
2022-08-28T00:56:17.233Z,61.8
2022-08-28T00:57:17.226Z,61.8
2022-08-28T00:58:17.224Z,61.8
2022-08-28T00:59:17.217Z,61.9
2022-08-28T01:00:17.225Z,62.3
2022-08-28T01:01:17.251Z,62.2
2022-08-28T01:02:17.225Z,62.5
2022-08-28T01:03:17.227Z,62.4
2022-08-28T01:04:17.248Z,62.5
2022-08-28T01:05:17.245Z,62.5
2022-08-28T01:06:17.218Z,62.9
2022-08-28T01:07:17.229Z,62.5
2022-08-28T01:08:17.259Z,62.6
2022-08-28T01:09:20.790Z,62.8
2022-08-28T01:10:17.247Z,62.8
2022-08-28T01:12:17.236Z,63.1
2022-08-28T01:13:17.249Z,63.4
2022-08-28T01:14:17.248Z,63.4
2022-08-28T01:15:17.254Z,63.2
2022-08-28T01:16:17.338Z,63.5
2022-08-28T01:17:17.249Z,63.6
2022-08-28T01:18:17.370Z,63.8
2022-08-28T01:19:17.236Z,63.7
2022-08-28T01:20:17.257Z,63.7
2022-08-28T01:21:20.269Z,63.9
2022-08-28T01:22:17.255Z,64
2022-08-28T01:23:17.254Z,63.8
2022-08-28T01:24:17.258Z,63.8
2022-08-28T01:25:17.255Z,63.8
2022-08-28T01:26:17.241Z,63.9
2022-08-28T01:27:17.251Z,63.8
2022-08-28T01:28:17.244Z,64.2
2022-08-28T01:29:17.241Z,64.2
2022-08-28T01:30:17.244Z,64.6
2022-08-28T01:31:17.329Z,64.4
2022-08-28T01:32:17.244Z,64.4
2022-08-28T01:33:17.238Z,64.3
2022-08-28T01:34:17.245Z,64.5
2022-08-28T01:35:17.235Z,64.7
2022-08-28T01:36:17.252Z,64.7
2022-08-28T01:37:17.242Z,64.8
2022-08-28T01:38:21.922Z,64.7
2022-08-28T01:39:17.251Z,64.7
2022-08-28T01:40:17.308Z,64.6
2022-08-28T01:41:17.251Z,64.9
2022-08-28T01:42:17.256Z,64.9
2022-08-28T01:43:17.278Z,65
2022-08-28T01:44:17.882Z,64.9
2022-08-28T01:45:17.247Z,65
2022-08-28T01:46:17.337Z,65
2022-08-28T01:47:17.242Z,65.2
2022-08-28T01:48:17.243Z,65
2022-08-28T01:49:17.270Z,65
2022-08-28T01:50:17.249Z,65.2
2022-08-28T01:51:19.484Z,64.9
2022-08-28T01:52:17.261Z,65
2022-08-28T01:53:17.258Z,65
2022-08-28T01:54:17.252Z,65.1
2022-08-28T01:55:21.508Z,65.4
2022-08-28T01:56:17.247Z,65.4
2022-08-28T01:57:17.252Z,65.2
2022-08-28T01:58:17.254Z,65.2
2022-08-28T01:59:17.270Z,65.1
2022-08-28T02:00:17.285Z,65.1
2022-08-28T02:01:17.360Z,65.1
2022-08-28T02:02:17.251Z,65.3
2022-08-28T02:03:17.267Z,65.5
2022-08-28T02:04:17.349Z,65.6
2022-08-28T02:05:17.253Z,65.7
2022-08-28T02:06:17.264Z,65.5
2022-08-28T02:07:17.255Z,66
2022-08-28T02:08:17.252Z,65.7
2022-08-28T02:09:17.256Z,65.7
2022-08-28T02:10:17.255Z,65.7
2022-08-28T02:11:17.316Z,65.9
2022-08-28T02:12:17.263Z,65.8
2022-08-28T02:13:17.255Z,66.1
2022-08-28T02:14:17.281Z,66
2022-08-28T02:15:17.260Z,66.6
2022-08-28T02:16:17.278Z,66.6
2022-08-28T02:17:17.274Z,66.6
2022-08-28T02:18:17.275Z,66.5
2022-08-28T02:19:17.281Z,66.7
2022-08-28T02:20:17.258Z,66.7
2022-08-28T02:21:17.268Z,66.9
2022-08-28T02:22:17.269Z,66.9
2022-08-28T02:23:17.263Z,66.9
2022-08-28T02:24:17.265Z,67.5
2022-08-28T02:25:18.117Z,67.2
2022-08-28T02:26:17.272Z,67.2
2022-08-28T02:27:17.265Z,67.5
2022-08-28T02:28:17.281Z,67.2
2022-08-28T02:29:17.265Z,67.4
2022-08-28T02:30:17.270Z,67.6
2022-08-28T02:31:17.278Z,67.5
2022-08-28T02:32:17.270Z,67.8
2022-08-28T02:33:17.272Z,67.8
2022-08-28T02:34:17.271Z,67.9
2022-08-28T02:35:17.269Z,67.7
2022-08-28T02:36:17.276Z,67.9
2022-08-28T02:37:17.269Z,68
2022-08-28T02:38:17.276Z,68.2
2022-08-28T02:39:17.270Z,68.2
2022-08-28T02:40:17.321Z,68.1
2022-08-28T02:41:17.275Z,68.2
2022-08-28T02:42:17.276Z,68.2
2022-08-28T02:43:17.268Z,68.4
2022-08-28T02:44:17.273Z,68.3
2022-08-28T02:45:17.271Z,68.5
2022-08-28T02:46:17.321Z,68.5
2022-08-28T02:48:17.658Z,68.9
2022-08-28T02:49:17.278Z,68.9
2022-08-28T02:50:17.299Z,69
2022-08-28T02:51:17.277Z,69.7
2022-08-28T02:52:17.276Z,69.2
2022-08-28T02:53:17.276Z,69.1
2022-08-28T02:54:18.472Z,69.3
2022-08-28T02:55:17.270Z,69.4
2022-08-28T02:56:17.286Z,69.3
2022-08-28T02:57:17.282Z,69.5
2022-08-28T02:58:17.287Z,69.6
2022-08-28T02:59:17.276Z,69.5
2022-08-28T03:00:17.278Z,69.5
2022-08-28T03:01:17.381Z,69.5
2022-08-28T03:02:17.301Z,69.9
2022-08-28T03:03:17.288Z,69.5
2022-08-28T03:04:17.284Z,69.7
2022-08-28T03:05:17.286Z,69.7
2022-08-28T03:06:17.280Z,69.8
2022-08-28T03:07:17.284Z,69.7
2022-08-28T03:08:17.286Z,69.9
2022-08-28T03:09:17.289Z,70
2022-08-28T03:10:17.284Z,70
2022-08-28T03:11:17.285Z,70
2022-08-28T03:12:17.299Z,70
2022-08-28T03:13:23.089Z,69.9
2022-08-28T03:15:17.303Z,69.7
2022-08-28T03:16:17.311Z,69.9
2022-08-28T03:17:17.290Z,69.9
2022-08-28T03:18:17.295Z,70.2
2022-08-28T03:19:17.289Z,70.4
2022-08-28T03:20:17.283Z,70.7
2022-08-28T03:21:17.289Z,70.6
2022-08-28T03:22:17.291Z,70.6
2022-08-28T03:23:17.293Z,70.8
2022-08-28T03:24:17.301Z,70.7
2022-08-28T03:25:17.293Z,70.7
2022-08-28T03:26:17.289Z,70.9
2022-08-28T03:27:17.293Z,70.8
2022-08-28T03:28:17.300Z,70.9
2022-08-28T03:29:17.297Z,71
2022-08-28T03:30:17.295Z,71
2022-08-28T03:31:17.328Z,71.1
2022-08-28T03:32:17.292Z,70.9
2022-08-28T03:33:17.293Z,70.8
2022-08-28T03:34:17.326Z,70.8
2022-08-28T03:35:17.300Z,70.7
2022-08-28T03:36:17.292Z,70.7
2022-08-28T03:37:17.299Z,70.7
2022-08-28T03:38:17.303Z,70.7
2022-08-28T03:39:17.324Z,70.7
2022-08-28T03:40:17.342Z,70.7
2022-08-28T03:41:17.297Z,70.7
2022-08-28T03:42:17.324Z,70.7
2022-08-28T03:43:17.305Z,70.6
2022-08-28T03:44:17.306Z,70.6
2022-08-28T03:45:17.375Z,70.5
2022-08-28T03:46:17.358Z,70.7
2022-08-28T03:47:17.301Z,70.6
2022-08-28T03:48:17.299Z,70.5
2022-08-28T03:49:17.299Z,70.4
2022-08-28T03:50:17.365Z,70.4
2022-08-28T03:51:17.516Z,70.5
2022-08-28T03:52:17.299Z,70.8
2022-08-28T03:53:17.301Z,70.9
2022-08-28T03:54:17.304Z,70.7
2022-08-28T03:55:17.308Z,70.7
2022-08-28T03:56:17.315Z,70.7
2022-08-28T03:57:17.301Z,70.6
2022-08-28T03:58:19.107Z,70.5
2022-08-28T03:59:17.317Z,70.6
2022-08-28T04:00:17.313Z,70.7
2022-08-28T04:01:17.368Z,70.9
2022-08-28T04:02:17.331Z,71
2022-08-28T04:03:17.328Z,71
2022-08-28T04:04:17.320Z,71.1
2022-08-28T04:05:17.304Z,71.1
2022-08-28T04:06:17.306Z,71.1
2022-08-28T04:07:17.303Z,71.4
2022-08-28T04:08:17.317Z,71.4
2022-08-28T04:09:17.304Z,71.7
2022-08-28T04:10:17.315Z,71.4
2022-08-28T04:11:17.305Z,71.6
2022-08-28T04:12:17.313Z,71.8
2022-08-28T04:13:17.306Z,71.8
2022-08-28T04:14:17.314Z,71.6
2022-08-28T04:15:17.313Z,72
2022-08-28T04:16:17.365Z,72.2
2022-08-28T04:17:17.314Z,72.3
2022-08-28T04:18:17.314Z,72.1
2022-08-28T04:19:17.335Z,72.5
2022-08-28T04:20:17.336Z,72.5
2022-08-28T04:21:17.318Z,72.4
2022-08-28T04:22:17.333Z,72.6
2022-08-28T04:23:17.325Z,72.6
2022-08-28T04:24:17.314Z,72.7
2022-08-28T04:25:17.343Z,72.6
2022-08-28T04:26:17.317Z,72.7
2022-08-28T04:27:17.321Z,72.8
2022-08-28T04:28:17.502Z,72.8
2022-08-28T04:29:17.317Z,72.7
2022-08-28T04:30:17.322Z,72.9
2022-08-28T04:31:17.344Z,73
2022-08-28T04:32:17.367Z,72.8
2022-08-28T04:33:17.326Z,72.9
2022-08-28T04:34:17.341Z,73
2022-08-28T04:35:17.317Z,73.2
2022-08-28T04:36:17.328Z,73.3
2022-08-28T04:37:17.316Z,73.4
2022-08-28T04:38:17.322Z,73.3
2022-08-28T04:39:17.320Z,73.2
2022-08-28T04:40:17.390Z,73
2022-08-28T04:41:17.333Z,73
2022-08-28T04:42:17.326Z,72.8
2022-08-28T04:43:17.345Z,72.7
2022-08-28T04:44:17.323Z,72.8
2022-08-28T04:45:17.319Z,72.8
2022-08-28T04:46:17.378Z,72.8
2022-08-28T04:47:17.322Z,72.8
2022-08-28T04:48:17.548Z,72.8
2022-08-28T04:49:17.333Z,73
2022-08-28T04:50:17.319Z,72.8
2022-08-28T04:51:17.330Z,72.8
2022-08-28T04:52:17.328Z,72.9
2022-08-28T04:53:17.343Z,73.4
2022-08-28T04:54:17.331Z,73.3
2022-08-28T04:55:18.237Z,73.2
2022-08-28T04:56:17.332Z,72.5
2022-08-28T04:57:17.334Z,72.4
2022-08-28T04:58:17.342Z,72.2
2022-08-28T04:59:17.353Z,72.1
2022-08-28T05:00:17.336Z,72.1
2022-08-28T05:01:17.357Z,72.4
2022-08-28T05:02:17.448Z,72.1
2022-08-28T05:03:17.334Z,72
2022-08-28T05:04:17.337Z,71.9
2022-08-28T05:05:17.339Z,71.9
2022-08-28T05:07:17.338Z,71.6
2022-08-28T05:08:17.339Z,71.8
2022-08-28T05:09:17.335Z,71.7
2022-08-28T05:10:17.346Z,71.9
2022-08-28T05:11:27.333Z,71.9
2022-08-28T05:12:17.418Z,72.2
2022-08-28T05:13:17.339Z,72.4
2022-08-28T05:14:17.348Z,72.6
2022-08-28T05:15:17.337Z,72.5
2022-08-28T05:16:17.388Z,72.4
2022-08-28T05:17:17.396Z,72.2
2022-08-28T05:18:17.337Z,72.1
2022-08-28T05:19:17.342Z,72
2022-08-28T05:20:17.346Z,71.9
2022-08-28T05:21:17.338Z,72
2022-08-28T05:22:17.359Z,72.3
2022-08-28T05:23:17.350Z,71.9
2022-08-28T05:24:17.338Z,71.3
2022-08-28T05:25:17.346Z,71.4
2022-08-28T05:26:17.345Z,71.3
2022-08-28T05:27:17.339Z,71.8
2022-08-28T05:28:17.343Z,71.6
2022-08-28T05:29:17.346Z,71.8
2022-08-28T05:30:17.345Z,72
2022-08-28T05:31:17.392Z,71.9
2022-08-28T05:32:17.340Z,71.9
2022-08-28T05:33:17.348Z,72.5
2022-08-28T05:34:17.349Z,72.3
2022-08-28T05:35:17.343Z,72.9
2022-08-28T05:36:17.345Z,72.8
2022-08-28T05:37:19.668Z,73
2022-08-28T05:38:17.341Z,73
2022-08-28T05:39:17.406Z,73.2
2022-08-28T05:40:17.419Z,73
2022-08-28T05:41:17.353Z,73.1
2022-08-28T05:42:17.369Z,73.4
2022-08-28T05:43:17.366Z,73.1
2022-08-28T05:44:17.357Z,73.1
2022-08-28T05:45:17.358Z,73.4
2022-08-28T05:46:17.412Z,72.8
2022-08-28T05:47:17.359Z,72.3
2022-08-28T05:48:17.349Z,72.3
2022-08-28T05:49:17.360Z,72.8
2022-08-28T05:50:17.363Z,72.6
2022-08-28T05:51:17.359Z,72.6
2022-08-28T05:52:17.381Z,72.8
2022-08-28T05:53:17.365Z,72.8
2022-08-28T05:54:17.373Z,73.1
2022-08-28T05:55:17.383Z,72.8
2022-08-28T05:56:17.364Z,72.8
2022-08-28T05:57:17.388Z,72.9
2022-08-28T05:58:17.380Z,73
2022-08-28T05:59:17.358Z,72.8
2022-08-28T06:00:17.365Z,73
2022-08-28T06:01:17.366Z,72.9
2022-08-28T06:02:17.375Z,72.8
2022-08-28T06:03:17.361Z,72.9
2022-08-28T06:04:17.488Z,72.9
2022-08-28T06:05:17.380Z,72.6
2022-08-28T06:06:17.378Z,72.4
2022-08-28T06:07:17.360Z,72.3
2022-08-28T06:08:17.363Z,72.6
2022-08-28T06:09:17.430Z,72.2
2022-08-28T06:10:17.358Z,71.6
2022-08-28T06:11:17.370Z,71.2
2022-08-28T06:12:17.356Z,71
2022-08-28T06:13:17.374Z,70.8
2022-08-28T06:14:18.062Z,71
2022-08-28T06:15:17.380Z,70.9
2022-08-28T06:16:17.399Z,71
2022-08-28T06:17:17.379Z,71.1
2022-08-28T06:18:17.372Z,71.4
2022-08-28T06:19:17.373Z,71.8
2022-08-28T06:21:17.375Z,71.5
2022-08-28T06:22:17.382Z,71.5
2022-08-28T06:23:24.063Z,71.6
2022-08-28T06:24:17.371Z,71.4
2022-08-28T06:25:17.379Z,71.5
2022-08-28T06:26:17.377Z,71.3
2022-08-28T06:27:17.363Z,71.3
2022-08-28T06:28:17.371Z,71
2022-08-28T06:29:17.387Z,71.1
2022-08-28T06:30:17.371Z,71
2022-08-28T06:31:24.250Z,70.7
2022-08-28T06:32:17.407Z,70.9
2022-08-28T06:33:17.372Z,70.5
2022-08-28T06:34:17.372Z,70.3
2022-08-28T06:35:17.386Z,70.2
2022-08-28T06:36:18.215Z,70.5
2022-08-28T06:37:17.410Z,69.9
2022-08-28T06:38:17.376Z,69.9
2022-08-28T06:39:17.387Z,69.4
2022-08-28T06:40:17.410Z,69.2
2022-08-28T06:42:17.389Z,67.7
2022-08-28T06:43:17.389Z,66.9
2022-08-28T06:44:17.389Z,65.9
2022-08-28T06:45:17.398Z,65.2
2022-08-28T06:46:17.537Z,64.7
2022-08-28T06:47:17.385Z,63.6
2022-08-28T06:48:17.388Z,63.1
2022-08-28T06:49:17.399Z,61.8
2022-08-28T06:50:17.405Z,61.1
2022-08-28T06:51:17.399Z,60.1
2022-08-28T06:52:17.388Z,59.3
2022-08-28T06:54:22.267Z,58.5
2022-08-28T06:55:17.404Z,58.2
2022-08-28T06:56:25.485Z,57.6
2022-08-28T06:57:17.397Z,56.8
2022-08-28T06:58:17.393Z,56.5
2022-08-28T06:59:17.376Z,56
2022-08-28T07:00:17.392Z,56.4
2022-08-28T07:01:17.452Z,56.1
2022-08-28T07:02:17.531Z,56.7
2022-08-28T07:03:17.733Z,57.4
2022-08-28T07:04:17.394Z,57.8
2022-08-28T07:05:17.397Z,58.4
2022-08-28T07:06:17.399Z,59.2
2022-08-28T07:07:32.436Z,59.8
2022-08-28T07:08:17.407Z,60.4
2022-08-28T07:09:17.405Z,61
2022-08-28T07:10:17.397Z,61.6
2022-08-28T07:11:17.403Z,61.9
2022-08-28T07:12:17.404Z,62.2
2022-08-28T07:13:17.386Z,62.4
2022-08-28T07:14:17.428Z,63
2022-08-28T07:15:17.410Z,63.4
2022-08-28T07:16:17.448Z,63.7
2022-08-28T07:17:17.405Z,63.6
2022-08-28T07:18:17.412Z,63.8
2022-08-28T07:19:17.407Z,64.1
2022-08-28T07:20:17.411Z,63.7
2022-08-28T07:21:17.408Z,63.7
2022-08-28T07:22:17.410Z,63.6
2022-08-28T07:23:17.394Z,63.6
2022-08-28T07:24:17.409Z,63.7
2022-08-28T07:25:17.396Z,63.7
2022-08-28T07:26:17.396Z,63
2022-08-28T07:27:19.159Z,62.4
2022-08-28T07:28:17.404Z,61.3
2022-08-28T07:29:17.399Z,61.3
2022-08-28T07:30:17.409Z,61
2022-08-28T07:31:17.457Z,60
2022-08-28T07:32:17.403Z,59.6
2022-08-28T07:33:17.402Z,59.2
2022-08-28T07:34:17.413Z,59
2022-08-28T07:35:17.410Z,58.4
2022-08-28T07:37:17.401Z,57.7
2022-08-28T07:38:17.484Z,57.7
2022-08-28T07:39:17.402Z,56.2
2022-08-28T07:40:17.434Z,55.9
2022-08-28T07:41:17.410Z,55.5
2022-08-28T07:42:17.414Z,54.9
2022-08-28T07:43:17.482Z,54.9
2022-08-28T07:44:17.401Z,54
2022-08-28T07:45:17.410Z,53.9
2022-08-28T07:46:17.480Z,53.6
2022-08-28T07:47:17.408Z,53.7
2022-08-28T07:48:17.955Z,53.7
2022-08-28T07:49:17.411Z,53.3
2022-08-28T07:50:17.407Z,52.9
2022-08-28T07:51:17.411Z,53.3
2022-08-28T07:52:17.416Z,52.9
2022-08-28T07:53:17.414Z,52.7
2022-08-28T07:54:18.209Z,52.7
2022-08-28T07:55:17.415Z,51.8
2022-08-28T07:56:17.417Z,51.6
2022-08-28T07:57:17.418Z,52.1
2022-08-28T07:58:17.413Z,51.7
2022-08-28T07:59:19.101Z,51.7
2022-08-28T08:00:17.430Z,51.4
2022-08-28T08:01:17.506Z,51.8
2022-08-28T08:02:17.416Z,51.3
2022-08-28T08:03:17.490Z,51.4
2022-08-28T08:04:17.424Z,51.3
2022-08-28T08:05:17.417Z,52
2022-08-28T08:06:17.416Z,51.5
2022-08-28T08:07:17.414Z,52
2022-08-28T08:08:17.416Z,52.2
2022-08-28T08:09:17.422Z,51.9
2022-08-28T08:10:20.573Z,51.4
2022-08-28T08:11:17.422Z,52.4
2022-08-28T08:12:17.421Z,51.6
2022-08-28T08:13:17.436Z,51.1
2022-08-28T08:14:17.420Z,50.8
2022-08-28T08:15:17.420Z,51
2022-08-28T08:16:17.485Z,51.5
2022-08-28T08:17:17.417Z,51.7
2022-08-28T08:18:17.419Z,51.2
2022-08-28T08:19:17.455Z,51.2
2022-08-28T08:20:17.428Z,51.3
2022-08-28T08:21:17.443Z,50.1
2022-08-28T08:22:17.432Z,49.4
2022-08-28T08:23:17.421Z,48.5
2022-08-28T08:24:19.598Z,49
2022-08-28T08:25:17.423Z,46.5
2022-08-28T08:26:17.429Z,46
2022-08-28T08:27:17.428Z,46
2022-08-28T08:28:17.421Z,46.2
2022-08-28T08:29:17.433Z,46
2022-08-28T08:30:17.443Z,45.8
2022-08-28T08:31:17.473Z,45.9
2022-08-28T08:32:17.432Z,45.9
2022-08-28T08:33:17.444Z,45.7
2022-08-28T08:34:17.429Z,45.9
2022-08-28T08:35:17.433Z,46.7
2022-08-28T08:37:17.429Z,46.5
2022-08-28T08:38:17.433Z,47
2022-08-28T08:39:17.428Z,45.8
2022-08-28T08:40:17.443Z,45.6
2022-08-28T08:41:17.442Z,45.9
2022-08-28T08:42:17.441Z,46.4
2022-08-28T08:43:17.427Z,46.3
2022-08-28T08:44:17.445Z,46.4
2022-08-28T08:45:17.442Z,46
2022-08-28T08:46:17.486Z,46.9
2022-08-28T08:47:17.439Z,46.5
2022-08-28T08:48:17.454Z,47.2
2022-08-28T08:49:17.444Z,46.3
2022-08-28T08:50:17.446Z,46.2
2022-08-28T08:51:17.445Z,46.3
2022-08-28T08:52:17.439Z,46.2
2022-08-28T08:53:17.434Z,46.4
2022-08-28T08:54:17.434Z,46.8
2022-08-28T08:55:17.440Z,47.1
2022-08-28T08:56:17.439Z,47.1
2022-08-28T08:57:17.446Z,47.7
2022-08-28T08:58:17.441Z,47.6
2022-08-28T08:59:17.442Z,47.9
2022-08-28T09:00:17.443Z,48
2022-08-28T09:01:17.527Z,48.1
2022-08-28T09:02:17.451Z,47.8
2022-08-28T09:03:17.509Z,47.7
2022-08-28T09:04:21.545Z,47.1
2022-08-28T09:05:17.446Z,47.4
2022-08-28T09:06:17.455Z,47.8
2022-08-28T09:07:17.445Z,47.2
2022-08-28T09:08:17.448Z,47.2
2022-08-28T09:09:17.449Z,47.6
2022-08-28T09:10:17.446Z,46
2022-08-28T09:11:17.454Z,46.1
2022-08-28T09:12:17.449Z,46.2
2022-08-28T09:13:17.514Z,45.3
2022-08-28T09:14:17.450Z,45
2022-08-28T09:15:17.448Z,44.5
2022-08-28T09:16:17.484Z,43.9
2022-08-28T09:17:17.448Z,43.2
2022-08-28T09:18:17.460Z,43.6
2022-08-28T09:19:17.465Z,45.1
2022-08-28T09:20:17.453Z,43.7
2022-08-28T09:21:17.447Z,43.7
2022-08-28T09:22:17.458Z,43.2
2022-08-28T09:23:17.459Z,43.8
2022-08-28T09:24:17.451Z,43.1
2022-08-28T09:25:17.453Z,43.4
2022-08-28T09:26:17.459Z,42.8
2022-08-28T09:27:17.452Z,42.5
2022-08-28T09:28:17.456Z,42.5
2022-08-28T09:29:17.469Z,42
2022-08-28T09:30:17.454Z,42.9
2022-08-28T09:31:20.032Z,42.8
2022-08-28T09:32:17.467Z,42.9
2022-08-28T09:33:17.453Z,43
2022-08-28T09:34:17.476Z,42.2
2022-08-28T09:35:17.460Z,42.7
2022-08-28T09:36:17.454Z,43.3
2022-08-28T09:37:17.457Z,43.7
2022-08-28T09:38:17.465Z,42.7
2022-08-28T09:39:17.460Z,42.6
2022-08-28T09:40:17.515Z,42.9
2022-08-28T09:41:17.470Z,43.4
2022-08-28T09:42:17.469Z,44.4
2022-08-28T09:43:17.477Z,42.7
2022-08-28T09:44:17.469Z,42.1
2022-08-28T09:45:17.465Z,42.3
2022-08-28T09:46:17.547Z,41.7
2022-08-28T09:47:17.466Z,42.1
2022-08-28T09:48:17.470Z,42.1
2022-08-28T09:49:17.476Z,41.7
2022-08-28T09:50:17.510Z,41.8
2022-08-28T09:51:17.471Z,41.8
2022-08-28T09:52:20.696Z,42
2022-08-28T09:53:17.496Z,42.5
2022-08-28T09:54:17.464Z,42.1
2022-08-28T09:55:17.530Z,42.6
2022-08-28T09:56:17.472Z,43
2022-08-28T09:57:17.468Z,43.5
2022-08-28T09:58:17.482Z,43.7
2022-08-28T09:59:17.473Z,43.4
2022-08-28T10:00:17.475Z,43.4
2022-08-28T10:01:17.520Z,43.9
2022-08-28T10:02:17.491Z,44.1
2022-08-28T10:03:17.479Z,44.3
2022-08-28T10:04:17.537Z,44.9
2022-08-28T10:05:17.477Z,44.3
2022-08-28T10:06:17.474Z,44.7
2022-08-28T10:07:17.481Z,44.9
2022-08-28T10:08:17.501Z,45.1
2022-08-28T10:09:17.489Z,46.1
2022-08-28T10:10:17.489Z,45.4
2022-08-28T10:11:17.477Z,45.2
2022-08-28T10:12:17.478Z,44.5
2022-08-28T10:13:17.483Z,44.5
2022-08-28T10:14:17.475Z,44.6
2022-08-28T10:15:17.480Z,45
2022-08-28T10:16:17.516Z,44.8
2022-08-28T10:17:18.938Z,45.2
2022-08-28T10:18:17.493Z,44.5
2022-08-28T10:19:17.482Z,44.9
2022-08-28T10:20:17.484Z,44.7
2022-08-28T10:21:17.487Z,44.7
2022-08-28T10:22:17.488Z,44.9
2022-08-28T10:23:17.851Z,45.6
2022-08-28T10:24:26.007Z,44.5
2022-08-28T10:25:17.498Z,43.7
2022-08-28T10:26:17.482Z,43.2
2022-08-28T10:27:17.487Z,43.1
2022-08-28T10:28:17.498Z,42
2022-08-28T10:29:17.498Z,42.1
2022-08-28T10:30:17.488Z,41.2
2022-08-28T10:32:17.494Z,41.3
2022-08-28T10:33:17.484Z,41.3
2022-08-28T10:34:17.500Z,41.1
2022-08-28T10:35:17.493Z,41.3
2022-08-28T10:36:28.759Z,41.6
2022-08-28T10:37:17.495Z,42.5
2022-08-28T10:38:17.495Z,42.2
2022-08-28T10:39:17.509Z,41.6
2022-08-28T10:40:17.525Z,42.3
2022-08-28T10:41:17.496Z,42.4
2022-08-28T10:42:17.501Z,42.6
2022-08-28T10:43:17.513Z,42.6
2022-08-28T10:44:17.495Z,42.2
2022-08-28T10:45:17.562Z,41.4
2022-08-28T10:46:17.558Z,41.3
2022-08-28T10:47:17.550Z,41.1
2022-08-28T10:48:17.499Z,42.3
2022-08-28T10:49:17.499Z,41.7
2022-08-28T10:50:17.502Z,41.7
2022-08-28T10:51:17.498Z,41.3
2022-08-28T10:52:17.501Z,42.3
2022-08-28T10:53:17.495Z,41.6
2022-08-28T10:54:17.501Z,41.7
2022-08-28T10:55:17.502Z,41.4
2022-08-28T10:56:17.504Z,41.4
2022-08-28T10:57:17.505Z,41.4
2022-08-28T10:58:24.900Z,41.1
2022-08-28T10:59:17.502Z,40.9
2022-08-28T11:00:17.509Z,41.1
2022-08-28T11:02:17.551Z,41.6
2022-08-28T11:03:33.462Z,41.6
2022-08-28T11:04:24.902Z,42.7
2022-08-28T11:05:17.511Z,42.1
2022-08-28T11:06:17.512Z,41.6
2022-08-28T11:07:17.508Z,41.6
2022-08-28T11:08:17.504Z,42.5
2022-08-28T11:09:17.575Z,42.2
2022-08-28T11:10:17.529Z,42.2
2022-08-28T11:11:17.519Z,41.7
2022-08-28T11:12:17.512Z,41.4
2022-08-28T11:13:17.503Z,41.2
2022-08-28T11:14:17.525Z,41.1
2022-08-28T11:15:17.514Z,40.5
2022-08-28T11:16:17.547Z,40.5
2022-08-28T11:17:17.512Z,40.3
2022-08-28T11:18:17.508Z,40.7
2022-08-28T11:19:17.514Z,41
2022-08-28T11:20:17.506Z,40.9
2022-08-28T11:21:17.510Z,41.3
2022-08-28T11:22:17.515Z,42
2022-08-28T11:23:17.508Z,42.2
2022-08-28T11:24:17.519Z,42.2
2022-08-28T11:25:17.513Z,42.2
2022-08-28T11:26:17.515Z,41.4
2022-08-28T11:27:17.519Z,41.5
2022-08-28T11:28:17.512Z,41.6
2022-08-28T11:29:17.519Z,41.9
2022-08-28T11:30:17.521Z,42.1
2022-08-28T11:31:19.187Z,41.9
2022-08-28T11:32:17.526Z,42.7
2022-08-28T11:33:17.513Z,42.2
2022-08-28T11:34:17.551Z,42.6
2022-08-28T11:35:17.525Z,41
2022-08-28T11:36:17.522Z,41.4
2022-08-28T11:37:17.522Z,41.4
2022-08-28T11:38:20.060Z,41.5
2022-08-28T11:39:17.527Z,41.7
2022-08-28T11:40:17.626Z,42.1
2022-08-28T11:41:17.526Z,42
2022-08-28T11:42:17.522Z,41.4
2022-08-28T11:43:17.535Z,41.3
2022-08-28T11:44:17.523Z,41.7
2022-08-28T11:45:17.544Z,41.7
2022-08-28T11:46:21.011Z,40.5
2022-08-28T11:47:17.536Z,40.3
2022-08-28T11:48:17.527Z,40.4
2022-08-28T11:49:17.532Z,41.1
2022-08-28T11:50:17.531Z,40.5
2022-08-28T11:51:17.530Z,41.4
2022-08-28T11:52:17.556Z,40.7
2022-08-28T11:53:17.537Z,41.7
2022-08-28T11:54:17.530Z,42.8
2022-08-28T11:55:17.556Z,45.1
2022-08-28T11:56:29.142Z,41.4
2022-08-28T11:57:17.540Z,41.5
2022-08-28T11:58:17.533Z,43.6
